Time,TemperatureF,DewpointF,PressureIn,WindDirection,WindDirectionDegrees,WindSpeedMPH,WindSpeedGustMPH,Humidity,HourlyPrecipIn,Conditions,Clouds,dailyrainin,SolarRadiationWatts/m^2,SoftwareType,DateUTC
2013-03-23 00:00:00,29.6,18.5,29.56,West,269,4.6,4.6,63,0.00,CLR,,0.00,0.0,WeatherDisplay:10.37,2013-03-23 04:00:00,
2013-03-23 00:01:00,29.6,18.5,29.56,WNW,291,10.4,10.4,63,0.00,CLR,,0.00,0.0,WeatherDisplay:10.37,2013-03-23 04:01:00,
2013-03-23 00:07:00,29.5,18.4,29.56,West,267,4.6,4.6,63,0.00,CLR,,0.00,0.0,WeatherDisplay:10.37,2013-03-23 04:07:00,
2013-03-23 00:12:00,29.2,18.2,29.56,West,266,9.2,9.2,63,0.00,CLR,,0.00,0.0,WeatherDisplay:10.37,2013-03-23 04:12:00,
2013-03-23 00:17:00,28.8,17.4,29.56,WNW,293,11.5,11.5,62,0.00,CLR,,0.00,0.0,WeatherDisplay:10.37,2013-03-23 04:17:00,
2013-03-23 00:22:00,28.6,17.6,29.57,West,271,10.4,10.4,63,0.00,CLR,,0.00,0.0,WeatherDisplay:10.37,2013-03-23 04:22:00,
2013-03-23 00:27:00,28.4,17.4,29.57,WNW,286,10.4,10.4,63,0.00,CLR,,0.00,0.0,WeatherDisplay:10.37,2013-03-23 04:27:00,
2013-03-23 00:32:00,28.3,17.7,29.57,West,265,6.9,6.9,64,0.00,CLR,,0.00,0.0,WeatherDisplay:10.37,2013-03-23 04:32:00,
2013-03-23 00:37:00,28.2,17.6,29.56,West,279,11.5,11.5,64,0.00,CLR,,0.00,0.0,WeatherDisplay:10.37,2013-03-23 04:37:00,
2013-03-23 00:42:00,28.2,17.6,29.56,WNW,286,6.9,6.9,64,0.00,CLR,,0.00,0.0,WeatherDisplay:10.37,2013-03-23 04:42:00,
2013-03-23 00:47:00,28.1,17.5,29.56,WNW,282,9.2,9.2,64,0.00,CLR,,0.00,0.0,WeatherDisplay:10.37,2013-03-23 04:47:00,
2013-03-23 00:52:00,27.9,17.6,29.57,West,281,3.5,3.5,65,0.00,CLR,,0.00,0.0,WeatherDisplay:10.37,2013-03-23 04:52:00,
2013-03-23 00:57:00,27.6,17.7,29.57,WNW,282,0.0,0.0,66,0.00,CLR,,0.00,0.0,WeatherDisplay:10.37,2013-03-23 04:57:00,
2013-03-23 01:02:00,27.2,17.7,29.57,WNW,282,0.0,0.0,67,0.00,CLR,,0.00,0.0,WeatherDisplay:10.37,2013-03-23 05:02:00,
2013-03-23 01:07:00,26.8,17.6,29.58,WNW,282,0.0,0.0,68,0.00,CLR,,0.00,0.0,WeatherDisplay:10.37,2013-03-23 05:07:00,
2013-03-23 01:12:00,26.4,18.3,29.58,WNW,282,0.0,0.0,71,0.00,CLR,,0.00,0.0,WeatherDisplay:10.37,2013-03-23 05:12:00,
2013-03-23 01:17:00,26.0,18.2,29.58,WNW,282,0.0,0.0,72,0.00,CLR,,0.00,0.0,WeatherDisplay:10.37,2013-03-23 05:17:00,
2013-03-23 01:22:00,25.6,18.1,29.57,WNW,282,0.0,0.0,73,0.00,CLR,,0.00,0.0,WeatherDisplay:10.37,2013-03-23 05:22:00,
2013-03-23 01:27:00,25.2,18.1,29.57,WNW,282,0.0,0.0,74,0.00,CLR,,0.00,0.0,WeatherDisplay:10.37,2013-03-23 05:27:00,
2013-03-23 01:32:00,25.1,17.7,29.57,WNW,282,0.0,0.0,73,0.00,CLR,,0.00,0.0,WeatherDisplay:10.37,2013-03-23 05:32:00,
2013-03-23 01:38:00,24.9,17.8,29.57,WNW,282,0.0,0.0,74,0.00,CLR,,0.00,0.0,WeatherDisplay:10.37,2013-03-23 05:38:00,
2013-03-23 01:43:00,24.9,17.5,29.57,WNW,282,0.0,0.0,73,0.00,CLR,,0.00,0.0,WeatherDisplay:10.37,2013-03-23 05:43:00,
2013-03-23 01:48:00,24.8,17.7,29.57,WNW,282,0.0,0.0,74,0.00,CLR,,0.00,0.0,WeatherDisplay:10.37,2013-03-23 05:48:00,
2013-03-23 01:53:00,24.5,17.7,29.56,WNW,282,0.0,0.0,75,0.00,CLR,,0.00,0.0,WeatherDisplay:10.37,2013-03-23 05:53:00,
2013-03-23 01:58:00,24.1,17.6,29.56,West,281,0.0,0.0,76,0.00,CLR,,0.00,0.0,WeatherDisplay:10.37,2013-03-23 05:58:00,
2013-03-23 02:03:00,24.0,17.8,29.56,WNW,282,0.0,0.0,77,0.00,CLR,,0.00,0.0,WeatherDisplay:10.37,2013-03-23 06:03:00,
2013-03-23 02:08:00,23.8,17.6,29.56,West,281,0.0,0.0,77,0.00,CLR,,0.00,0.0,WeatherDisplay:10.37,2013-03-23 06:08:00,
2013-03-23 02:13:00,23.5,17.3,29.56,West,281,2.0,2.0,77,0.00,CLR,,0.00,0.0,WeatherDisplay:10.37,2013-03-23 06:13:00,
2013-03-23 02:18:00,23.4,17.8,29.56,WNW,282,0.0,0.0,79,0.00,CLR,,0.00,0.0,WeatherDisplay:10.37,2013-03-23 06:18:00,
2013-03-23 02:23:00,23.1,17.6,29.55,West,281,0.0,0.0,79,0.00,CLR,,0.00,0.0,WeatherDisplay:10.37,2013-03-23 06:23:00,
2013-03-23 02:28:00,22.6,16.8,29.55,WNW,282,1.2,1.2,78,0.00,CLR,,0.00,0.0,WeatherDisplay:10.37,2013-03-23 06:28:00,
2013-03-23 02:33:00,21.7,15.9,29.55,WNW,282,0.0,0.0,78,0.00,CLR,,0.00,0.0,WeatherDisplay:10.37,2013-03-23 06:33:00,
2013-03-23 02:38:00,21.3,15.8,29.55,WNW,282,0.0,0.0,79,0.00,CLR,,0.00,0.0,WeatherDisplay:10.37,2013-03-23 06:38:00,
2013-03-23 02:43:00,21.3,16.1,29.55,West,281,0.0,0.0,80,0.00,CLR,,0.00,0.0,WeatherDisplay:10.37,2013-03-23 06:43:00,
2013-03-23 02:48:00,20.7,15.2,29.55,West,281,0.0,0.0,79,0.00,CLR,,0.00,0.0,WeatherDisplay:10.37,2013-03-23 06:48:00,
2013-03-23 02:53:00,20.0,14.8,29.55,WNW,282,2.3,2.3,80,0.00,CLR,,0.00,0.0,WeatherDisplay:10.37,2013-03-23 06:53:00,
2013-03-23 02:58:00,19.7,14.8,29.55,WNW,282,0.0,0.0,81,0.00,CLR,,0.00,0.0,WeatherDisplay:10.37,2013-03-23 06:58:00,
2013-03-23 03:03:00,20.2,15.6,29.55,WNW,282,1.2,0.0,82,0.00,CLR,,0.00,0.0,WeatherDisplay:10.37,2013-03-23 07:03:00,
2013-03-23 03:08:00,21.0,16.4,29.54,WNW,296,0.0,0.0,82,0.00,CLR,,0.00,0.0,WeatherDisplay:10.37,2013-03-23 07:08:00,
2013-03-23 03:13:00,22.2,17.3,29.54,WNW,296,0.0,0.0,81,0.00,CLR,,0.00,0.0,WeatherDisplay:10.37,2013-03-23 07:13:00,
2013-03-23 03:18:00,23.2,17.7,29.54,WNW,296,0.0,0.0,79,0.00,CLR,,0.00,0.0,WeatherDisplay:10.37,2013-03-23 07:18:00,
2013-03-23 03:23:00,23.8,17.6,29.53,WNW,296,0.0,0.0,77,0.00,CLR,,0.00,0.0,WeatherDisplay:10.37,2013-03-23 07:23:00,
2013-03-23 03:28:00,23.7,17.2,29.53,WNW,296,0.0,0.0,76,0.00,CLR,,0.00,0.0,WeatherDisplay:10.37,2013-03-23 07:28:00,
2013-03-23 03:33:00,23.3,16.9,29.53,WNW,296,0.0,0.0,76,0.00,CLR,,0.00,0.0,WeatherDisplay:10.37,2013-03-23 07:33:00,
2013-03-23 03:38:00,22.2,16.1,29.52,WNW,296,2.3,2.3,77,0.00,CLR,,0.00,0.0,WeatherDisplay:10.37,2013-03-23 07:38:00,
2013-03-23 03:43:00,22.2,16.7,29.52,WNW,296,0.0,0.0,79,0.00,CLR,,0.00,0.0,WeatherDisplay:10.37,2013-03-23 07:43:00,
2013-03-23 03:48:00,22.3,16.8,29.52,WNW,296,1.0,0.0,79,0.00,CLR,,0.00,0.0,WeatherDisplay:10.37,2013-03-23 07:48:00,
2013-03-23 03:53:00,22.7,17.5,29.51,WNW,295,0.0,0.0,80,0.00,CLR,,0.00,0.0,WeatherDisplay:10.37,2013-03-23 07:53:00,
2013-03-23 03:58:00,23.3,17.7,29.51,WNW,296,0.0,0.0,79,0.00,CLR,,0.00,0.0,WeatherDisplay:10.37,2013-03-23 07:58:00,
2013-03-23 04:03:00,23.9,18.3,29.51,WNW,296,2.0,2.0,79,0.00,CLR,,0.00,0.0,WeatherDisplay:10.37,2013-03-23 08:03:00,
2013-03-23 04:08:00,24.4,18.5,29.50,West,267,3.5,3.5,78,0.00,CLR,,0.00,0.0,WeatherDisplay:10.37,2013-03-23 08:08:00,
2013-03-23 04:13:00,25.2,18.7,29.50,WNW,298,3.5,3.5,76,0.00,CLR,,0.00,0.0,WeatherDisplay:10.37,2013-03-23 08:13:00,
2013-03-23 04:18:00,25.6,18.8,29.50,WNW,299,0.0,0.2,75,0.00,CLR,,0.00,0.0,WeatherDisplay:10.37,2013-03-23 08:18:00,
2013-03-23 04:23:00,25.8,18.7,29.50,WNW,298,3.5,3.5,74,0.00,CLR,,0.00,0.0,WeatherDisplay:10.37,2013-03-23 08:23:00,
2013-03-23 04:28:00,25.9,18.7,29.50,WNW,298,1.2,0.0,74,0.00,CLR,,0.00,0.0,WeatherDisplay:10.37,2013-03-23 08:28:00,
2013-03-23 04:33:00,25.9,18.7,29.50,WNW,298,0.0,0.0,74,0.00,CLR,,0.00,0.0,WeatherDisplay:10.37,2013-03-23 08:33:00,
2013-03-23 04:38:00,25.8,18.7,29.50,WNW,298,0.0,0.1,74,0.00,CLR,,0.00,0.0,WeatherDisplay:10.37,2013-03-23 08:38:00,
2013-03-23 04:43:00,25.7,18.6,29.50,WNW,298,1.0,1.1,74,0.00,CLR,,0.00,0.0,WeatherDisplay:10.37,2013-03-23 08:43:00,
2013-03-23 04:48:00,25.8,18.3,29.50,WNW,298,1.2,0.0,73,0.00,CLR,,0.00,0.0,WeatherDisplay:10.37,2013-03-23 08:48:00,
2013-03-23 04:53:00,26.0,18.5,29.49,WNW,298,0.0,0.6,73,0.00,CLR,,0.00,0.0,WeatherDisplay:10.37,2013-03-23 08:53:00,
2013-03-23 04:58:00,26.1,18.6,29.49,WNW,298,1.2,1.2,73,0.00,CLR,,0.00,0.0,WeatherDisplay:10.37,2013-03-23 08:58:00,
2013-03-23 05:03:00,26.0,18.8,29.49,WNW,299,0.0,0.0,74,0.00,CLR,,0.00,0.0,WeatherDisplay:10.37,2013-03-23 09:03:00,
2013-03-23 05:09:00,26.0,18.8,29.49,WNW,299,0.0,0.0,74,0.00,CLR,,0.00,0.0,WeatherDisplay:10.37,2013-03-23 09:09:00,
2013-03-23 05:14:00,25.9,18.7,29.49,WNW,299,0.0,0.0,74,0.00,CLR,,0.00,0.0,WeatherDisplay:10.37,2013-03-23 09:14:00,
2013-03-23 05:19:00,26.0,18.8,29.49,WNW,299,0.0,0.0,74,0.00,CLR,,0.00,0.0,WeatherDisplay:10.37,2013-03-23 09:19:00,
2013-03-23 05:24:00,25.8,18.7,29.49,WNW,299,0.0,0.0,74,0.00,CLR,,0.00,0.0,WeatherDisplay:10.37,2013-03-23 09:24:00,
2013-03-23 05:29:00,25.6,18.8,29.49,WNW,299,0.0,0.0,75,0.00,CLR,,0.00,0.0,WeatherDisplay:10.37,2013-03-23 09:29:00,
2013-03-23 05:34:00,25.5,18.7,29.49,WNW,299,0.0,0.0,75,0.00,CLR,,0.00,0.0,WeatherDisplay:10.37,2013-03-23 09:34:00,
2013-03-23 05:39:00,25.2,18.4,29.49,WNW,299,0.0,0.0,75,0.00,CLR,,0.00,0.0,WeatherDisplay:10.37,2013-03-23 09:39:00,
2013-03-23 05:44:00,24.9,17.8,29.49,WNW,299,3.5,3.5,74,0.00,CLR,,0.00,0.0,WeatherDisplay:10.37,2013-03-23 09:44:00,
2013-03-23 05:49:00,23.0,15.9,29.49,WNW,299,0.0,0.0,74,0.00,CLR,,0.00,0.0,WeatherDisplay:10.37,2013-03-23 09:49:00,
2013-03-23 05:54:00,22.1,16.0,29.49,WNW,299,0.0,0.0,77,0.00,CLR,,0.00,0.0,WeatherDisplay:10.37,2013-03-23 09:54:00,
2013-03-23 05:59:00,22.1,16.6,29.49,WNW,299,0.0,0.0,79,0.00,CLR,,0.00,0.0,WeatherDisplay:10.37,2013-03-23 09:59:00,
2013-03-23 06:04:00,21.9,16.7,29.49,WNW,299,1.2,1.2,80,0.00,CLR,,0.00,0.0,WeatherDisplay:10.37,2013-03-23 10:04:00,
2013-03-23 06:09:00,21.8,16.6,29.49,WNW,299,0.0,0.0,80,0.00,CLR,,0.00,0.0,WeatherDisplay:10.37,2013-03-23 10:09:00,
2013-03-23 06:14:00,22.0,17.1,29.49,WNW,299,0.0,0.0,81,0.00,CLR,,0.00,0.0,WeatherDisplay:10.37,2013-03-23 10:14:00,
2013-03-23 06:19:00,22.4,17.2,29.49,WNW,299,2.3,2.3,80,0.00,CLR,,0.00,0.0,WeatherDisplay:10.37,2013-03-23 10:19:00,
2013-03-23 06:24:00,22.4,16.9,29.49,WNW,299,3.5,3.5,79,0.00,CLR,,0.00,0.0,WeatherDisplay:10.37,2013-03-23 10:24:00,
2013-03-23 06:29:00,21.6,16.1,29.49,WNW,298,4.6,4.6,79,0.00,CLR,,0.00,0.0,WeatherDisplay:10.37,2013-03-23 10:29:00,
2013-03-23 06:34:00,21.6,17.0,29.49,WNW,291,4.6,4.6,82,0.00,CLR,,0.00,0.0,WeatherDisplay:10.37,2013-03-23 10:34:00,
2013-03-23 06:39:00,23.1,18.4,29.49,WNW,295,2.0,2.0,82,0.00,CLR,,0.00,0.0,WeatherDisplay:10.37,2013-03-23 10:39:00,
2013-03-23 06:44:00,24.8,19.8,29.49,West,279,8.1,8.1,81,0.00,CLR,,0.00,0.0,WeatherDisplay:10.37,2013-03-23 10:44:00,
2013-03-23 06:49:00,26.1,20.8,29.49,WNW,297,5.8,5.8,80,0.00,SCT,,0.00,5.0,WeatherDisplay:10.37,2013-03-23 10:49:00,
2013-03-23 06:54:00,26.9,21.0,29.49,WNW,297,2.3,2.3,78,0.00,BKN,,0.00,7.0,WeatherDisplay:10.37,2013-03-23 10:54:00,
2013-03-23 06:59:00,27.4,21.1,29.49,WNW,286,2.3,2.3,77,0.00,BKN,,0.00,9.0,WeatherDisplay:10.37,2013-03-23 10:59:00,
2013-03-23 07:04:00,27.7,21.4,29.49,WNW,286,0.0,0.0,77,0.00,BKN,,0.00,11.0,WeatherDisplay:10.37,2013-03-23 11:04:00,
2013-03-23 07:09:00,27.9,21.6,29.49,WSW,252,0.0,0.0,77,0.00,BKN,,0.00,12.0,WeatherDisplay:10.37,2013-03-23 11:09:00,
2013-03-23 07:14:00,28.0,21.7,29.49,West,259,4.6,4.6,77,0.00,BKN,,0.00,14.0,WeatherDisplay:10.37,2013-03-23 11:14:00,
2013-03-23 07:19:00,28.4,21.8,29.49,WNW,294,3.5,3.5,76,0.00,BKN,,0.00,18.0,WeatherDisplay:10.37,2013-03-23 11:19:00,
2013-03-23 07:24:00,28.6,22.0,29.49,WNW,283,1.2,1.2,76,0.00,BKN,,0.00,19.0,WeatherDisplay:10.37,2013-03-23 11:24:00,
2013-03-23 07:29:00,28.8,22.2,29.49,SW,222,0.0,0.0,76,0.00,BKN,,0.00,23.0,WeatherDisplay:10.37,2013-03-23 11:29:00,
2013-03-23 07:34:00,28.9,22.3,29.49,West,276,3.5,3.5,76,0.00,BKN,,0.00,28.0,WeatherDisplay:10.37,2013-03-23 11:34:00,
2013-03-23 07:39:00,29.1,22.2,29.49,West,276,3.5,3.5,75,0.00,BKN,,0.00,32.0,WeatherDisplay:10.37,2013-03-23 11:39:00,
2013-03-23 07:44:00,29.1,22.2,29.49,West,276,0.0,0.0,75,0.00,BKN,,0.00,33.0,WeatherDisplay:10.37,2013-03-23 11:44:00,
2013-03-23 07:49:00,29.3,22.0,29.49,West,276,0.0,0.0,74,0.00,BKN,,0.00,39.0,WeatherDisplay:10.37,2013-03-23 11:49:00,
2013-03-23 07:54:00,29.3,22.0,29.49,West,276,0.0,0.0,74,0.00,BKN,,0.00,44.0,WeatherDisplay:10.37,2013-03-23 11:54:00,
2013-03-23 07:59:00,29.4,22.1,29.49,West,276,0.0,0.0,74,0.00,BKN,,0.00,42.0,WeatherDisplay:10.37,2013-03-23 11:59:00,
2013-03-23 08:04:00,29.3,22.0,29.49,West,276,0.0,0.0,74,0.00,BKN,,0.00,53.0,WeatherDisplay:10.37,2013-03-23 12:04:00,
2013-03-23 08:09:00,29.6,21.7,29.49,West,276,2.3,2.3,72,0.00,BKN,,0.00,62.0,WeatherDisplay:10.37,2013-03-23 12:09:00,
2013-03-23 08:14:00,29.6,22.0,29.49,West,276,0.0,0.0,73,0.00,BKN,,0.00,65.0,WeatherDisplay:10.37,2013-03-23 12:14:00,
2013-03-23 08:19:00,29.9,21.6,29.49,West,276,0.0,0.0,71,0.00,BKN,,0.00,70.0,WeatherDisplay:10.37,2013-03-23 12:19:00,
2013-03-23 08:24:00,30.1,21.2,29.49,West,276,0.0,0.0,69,0.00,BKN,,0.00,77.0,WeatherDisplay:10.37,2013-03-23 12:24:00,
2013-03-23 08:29:00,30.6,21.3,29.49,West,276,3.5,3.5,68,0.00,BKN,,0.00,77.0,WeatherDisplay:10.37,2013-03-23 12:29:00,
2013-03-23 08:34:00,30.8,21.1,29.49,West,276,0.0,0.0,67,0.00,BKN,,0.00,84.0,WeatherDisplay:10.37,2013-03-23 12:34:00,
2013-03-23 08:39:00,31.0,21.0,29.48,West,260,6.0,6.0,66,0.00,BKN,,0.00,95.0,WeatherDisplay:10.37,2013-03-23 12:39:00,
2013-03-23 08:44:00,31.2,21.5,29.48,WNW,287,3.5,3.5,67,0.00,BKN,,0.00,107.0,WeatherDisplay:10.37,2013-03-23 12:44:00,
2013-03-23 08:49:00,31.5,21.4,29.48,West,263,2.3,2.3,66,0.00,BKN,,0.00,118.0,WeatherDisplay:10.37,2013-03-23 12:49:00,
2013-03-23 08:54:00,31.7,21.6,29.47,West,271,3.0,3.0,66,0.00,BKN,,0.00,139.0,WeatherDisplay:10.37,2013-03-23 12:54:00,
2013-03-23 08:59:00,31.8,21.7,29.47,West,261,3.5,3.5,66,0.00,BKN,,0.00,148.0,WeatherDisplay:10.37,2013-03-23 12:59:00,
2013-03-23 09:04:00,32.0,21.9,29.47,West,281,11.5,11.5,66,0.00,BKN,,0.00,151.0,WeatherDisplay:10.37,2013-03-23 13:04:00,
2013-03-23 09:09:00,32.1,22.0,29.47,WNW,298,3.5,3.5,66,0.00,BKN,,0.00,144.0,WeatherDisplay:10.37,2013-03-23 13:09:00,
2013-03-23 09:14:00,32.1,22.0,29.47,West,269,3.5,3.5,66,0.00,BKN,,0.00,160.0,WeatherDisplay:10.37,2013-03-23 13:14:00,
2013-03-23 09:19:00,32.2,22.5,29.47,WSW,250,10.4,10.4,67,0.00,BKN,,0.00,188.0,WeatherDisplay:10.37,2013-03-23 13:19:00,
2013-03-23 09:24:00,32.4,22.7,29.47,WNW,284,9.2,9.2,67,0.00,SCT,,0.00,230.0,WeatherDisplay:10.37,2013-03-23 13:24:00,
2013-03-23 09:29:00,32.6,22.8,29.47,West,279,6.9,6.9,67,0.00,BKN,,0.00,185.0,WeatherDisplay:10.37,2013-03-23 13:29:00,
2013-03-23 09:34:00,32.7,22.9,29.47,NNE,23,6.9,6.9,67,0.00,BKN,,0.00,311.0,WeatherDisplay:10.37,2013-03-23 13:34:00,
2013-03-23 09:39:00,33.1,23.3,29.47,WSW,237,4.0,4.4,67,0.00,SCT,,0.00,311.0,WeatherDisplay:10.37,2013-03-23 13:39:00,
2013-03-23 09:44:00,34.1,23.6,29.47,West,277,10.4,10.4,65,0.00,SCT,,0.00,341.0,WeatherDisplay:10.37,2013-03-23 13:44:00,
2013-03-23 09:49:00,34.7,23.4,29.47,WNW,288,5.0,5.0,63,0.00,CLR,,0.00,635.0,WeatherDisplay:10.37,2013-03-23 13:49:00,
2013-03-23 09:54:00,35.0,23.3,29.46,West,270,4.6,5.1,62,0.00,CLR,,0.00,664.0,WeatherDisplay:10.37,2013-03-23 13:54:00,
2013-03-23 09:59:00,35.4,22.9,29.46,WNW,296,8.1,8.1,60,0.00,CLR,,0.00,645.0,WeatherDisplay:10.37,2013-03-23 13:59:00,
2013-03-23 10:04:00,35.9,23.0,29.46,West,276,11.5,11.5,59,0.00,CLR,,0.00,694.0,WeatherDisplay:10.37,2013-03-23 14:04:00,
2013-03-23 10:09:00,36.1,22.3,29.45,WNW,293,7.0,7.0,57,0.00,CLR,,0.00,633.0,WeatherDisplay:10.37,2013-03-23 14:09:00,
2013-03-23 10:14:00,36.3,21.7,29.45,NW,313,9.2,9.2,55,0.00,BKN,,0.00,204.0,WeatherDisplay:10.37,2013-03-23 14:14:00,
2013-03-23 10:19:00,36.2,21.6,29.45,WNW,284,10.0,10.0,55,0.00,BKN,,0.00,204.0,WeatherDisplay:10.37,2013-03-23 14:19:00,
2013-03-23 10:24:00,36.0,20.1,29.45,South,169,18.4,18.4,52,0.00,BKN,,0.00,220.0,WeatherDisplay:10.37,2013-03-23 14:24:00,
2013-03-23 10:29:00,36.0,20.1,29.45,NW,312,12.0,12.0,52,0.00,SCT,,0.00,316.0,WeatherDisplay:10.37,2013-03-23 14:29:00,
2013-03-23 10:34:00,36.1,20.6,29.45,NW,319,3.5,3.5,53,0.00,BKN,,0.00,199.0,WeatherDisplay:10.37,2013-03-23 14:34:00,
2013-03-23 10:39:00,35.6,20.6,29.45,NW,317,3.5,3.5,54,0.00,BKN,,0.00,179.0,WeatherDisplay:10.37,2013-03-23 14:39:00,
2013-03-23 10:44:00,35.8,21.2,29.45,West,273,5.8,5.8,55,0.00,BKN,,0.00,193.0,WeatherDisplay:10.37,2013-03-23 14:44:00,
2013-03-23 10:49:00,36.3,21.7,29.45,West,262,11.5,11.5,55,0.00,BKN,,0.00,700.0,WeatherDisplay:10.37,2013-03-23 14:49:00,
2013-03-23 10:54:00,37.4,21.4,29.44,NNW,337,11.5,11.5,52,0.00,CLR,,0.00,705.0,WeatherDisplay:10.37,2013-03-23 14:54:00,
2013-03-23 11:00:00,37.8,22.2,29.44,NW,309,8.1,8.1,53,0.00,CLR,,0.00,689.0,WeatherDisplay:10.37,2013-03-23 15:00:00,
2013-03-23 11:05:00,38.0,21.9,29.44,West,279,2.0,12.0,52,0.00,CLR,,0.00,703.0,WeatherDisplay:10.37,2013-03-23 15:05:00,
2013-03-23 11:10:00,38.3,21.3,29.44,West,270,3.0,12.0,50,0.00,CLR,,0.00,809.0,WeatherDisplay:10.37,2013-03-23 15:10:00,
2013-03-23 11:15:00,38.6,22.5,29.44,West,274,4.6,4.6,52,0.00,CLR,,0.00,928.0,WeatherDisplay:10.37,2013-03-23 15:15:00,
2013-03-23 11:20:00,38.6,22.0,29.44,West,280,5.8,5.8,51,0.00,SCT,,0.00,367.0,WeatherDisplay:10.37,2013-03-23 15:20:00,
2013-03-23 11:25:00,38.0,21.5,29.43,WNW,296,11.5,11.5,51,0.00,BKN,,0.00,285.0,WeatherDisplay:10.37,2013-03-23 15:25:00,
2013-03-23 11:30:00,38.1,21.5,29.43,West,267,2.0,12.0,51,0.00,CLR,,0.00,828.0,WeatherDisplay:10.37,2013-03-23 15:30:00,
2013-03-23 11:35:00,38.8,21.7,29.43,West,272,6.0,12.0,50,0.00,CLR,,0.00,828.0,WeatherDisplay:10.37,2013-03-23 15:35:00,
2013-03-23 11:40:00,39.0,20.9,29.43,West,278,6.0,14.0,48,0.00,SCT,,0.00,439.0,WeatherDisplay:10.37,2013-03-23 15:40:00,
2013-03-23 11:45:00,39.2,22.1,29.43,West,261,2.0,18.0,50,0.00,CLR,,0.00,680.0,WeatherDisplay:10.37,2013-03-23 15:45:00,
2013-03-23 11:50:00,39.1,21.0,29.43,WSW,251,5.0,15.0,48,0.00,CLR,,0.00,851.0,WeatherDisplay:10.37,2013-03-23 15:50:00,
2013-03-23 11:54:00,39.1,22.0,29.43,WNW,282,13.8,13.8,50,0.00,CLR,,0.00,701.0,WeatherDisplay:10.37,2013-03-23 15:54:00,
2013-03-23 11:59:00,39.6,22.5,29.43,SW,216,17.3,17.3,50,0.00,SCT,,0.00,805.0,WeatherDisplay:10.37,2013-03-23 15:59:00,
2013-03-23 12:04:00,39.0,20.9,29.43,West,280,7.0,17.0,48,0.00,SCT,,0.00,422.0,WeatherDisplay:10.37,2013-03-23 16:04:00,
2013-03-23 12:10:00,38.4,21.4,29.43,WNW,283,5.0,12.0,50,0.00,SCT,,0.00,504.0,WeatherDisplay:10.37,2013-03-23 16:10:00,
2013-03-23 12:15:00,38.4,22.3,29.43,West,278,1.0,14.0,52,0.00,BKN,,0.00,352.0,WeatherDisplay:10.37,2013-03-23 16:15:00,
2013-03-23 12:20:00,38.4,22.3,29.43,West,272,3.0,13.0,52,0.00,CLR,,0.00,796.0,WeatherDisplay:10.37,2013-03-23 16:20:00,
2013-03-23 12:24:00,38.5,21.9,29.44,WNW,284,7.0,7.0,51,0.00,CLR,,0.00,362.0,WeatherDisplay:10.37,2013-03-23 16:24:00,
2013-03-23 12:30:00,38.5,22.4,29.44,West,280,8.1,8.1,52,0.00,CLR,,0.00,805.0,WeatherDisplay:10.37,2013-03-23 16:30:00,
2013-03-23 12:35:00,39.0,23.3,29.44,WNW,296,3.5,3.5,53,0.00,CLR,,0.00,904.0,WeatherDisplay:10.37,2013-03-23 16:35:00,
2013-03-23 12:40:00,39.6,23.0,29.44,West,281,5.0,14.0,51,0.00,CLR,,0.00,904.0,WeatherDisplay:10.37,2013-03-23 16:40:00,
2013-03-23 12:45:00,39.4,22.8,29.44,West,275,2.0,7.0,51,0.00,SCT,,0.00,396.0,WeatherDisplay:10.37,2013-03-23 16:45:00,
2013-03-23 12:50:00,39.1,22.9,29.44,West,277,5.0,14.0,52,0.00,SCT,,0.00,548.0,WeatherDisplay:10.37,2013-03-23 16:50:00,
2013-03-23 12:55:00,39.0,22.8,29.44,West,265,9.2,9.2,52,0.00,SCT,,0.00,557.0,WeatherDisplay:10.37,2013-03-23 16:55:00,
2013-03-23 12:59:00,38.5,22.8,29.44,SW,215,3.0,3.0,53,0.00,SCT,,0.00,432.0,WeatherDisplay:10.37,2013-03-23 16:59:00,
2013-03-23 13:04:00,38.5,22.4,29.44,West,268,2.0,12.0,52,0.00,SCT,,0.00,429.0,WeatherDisplay:10.37,2013-03-23 17:04:00,
2013-03-23 13:10:00,38.2,22.5,29.44,WSW,258,3.0,12.0,53,0.00,SCT,,0.00,420.0,WeatherDisplay:10.37,2013-03-23 17:10:00,
2013-03-23 13:15:00,38.2,22.1,29.44,WSW,248,2.0,12.0,52,0.00,SCT,,0.00,408.0,WeatherDisplay:10.37,2013-03-23 17:15:00,
2013-03-23 13:20:00,38.7,23.1,29.44,West,271,2.0,6.0,53,0.00,SCT,,0.00,418.0,WeatherDisplay:10.37,2013-03-23 17:20:00,
2013-03-23 13:25:00,38.5,22.4,29.44,NW,315,18.4,18.4,52,0.00,BKN,,0.00,320.0,WeatherDisplay:10.37,2013-03-23 17:25:00,
2013-03-23 13:30:00,38.6,22.9,29.44,WNW,292,6.9,6.9,53,0.00,SCT,,0.00,443.0,WeatherDisplay:10.37,2013-03-23 17:30:00,
2013-03-23 13:35:00,38.8,23.6,29.44,SE,140,5.8,5.8,54,0.00,SCT,,0.00,431.0,WeatherDisplay:10.37,2013-03-23 17:35:00,
2013-03-23 13:40:00,39.4,23.7,29.45,West,265,8.0,15.0,53,0.00,SCT,,0.00,482.0,WeatherDisplay:10.37,2013-03-23 17:40:00,
2013-03-23 13:45:00,39.1,22.5,29.45,WSW,255,7.0,15.0,51,0.00,SCT,,0.00,439.0,WeatherDisplay:10.37,2013-03-23 17:45:00,
2013-03-23 13:50:00,39.3,23.6,29.45,West,279,1.0,13.0,53,0.00,BKN,,0.00,350.0,WeatherDisplay:10.37,2013-03-23 17:50:00,
2013-03-23 13:54:00,39.1,23.4,29.45,SE,126,6.0,6.0,53,0.00,SCT,,0.00,360.0,WeatherDisplay:10.37,2013-03-23 17:54:00,
2013-03-23 14:00:00,38.9,23.2,29.45,WNW,290,5.8,5.8,53,0.00,BKN,,0.00,338.0,WeatherDisplay:10.37,2013-03-23 18:00:00,
2013-03-23 14:05:00,38.7,23.0,29.45,WNW,283,6.0,12.0,53,0.00,SCT,,0.00,403.0,WeatherDisplay:10.37,2013-03-23 18:05:00,
2013-03-23 14:10:00,38.7,23.0,29.45,WNW,287,5.0,9.0,53,0.00,BKN,,0.00,308.0,WeatherDisplay:10.37,2013-03-23 18:10:00,
2013-03-23 14:15:00,38.8,23.6,29.45,WNW,286,3.0,12.0,54,0.00,BKN,,0.00,329.0,WeatherDisplay:10.37,2013-03-23 18:15:00,
2013-03-23 14:20:00,39.1,23.4,29.45,West,274,6.0,15.0,53,0.00,BKN,,0.00,346.0,WeatherDisplay:10.37,2013-03-23 18:20:00,
2013-03-23 14:24:00,38.9,23.2,29.46,West,275,2.0,17.0,53,0.00,SCT,,0.00,415.0,WeatherDisplay:10.37,2013-03-23 18:24:00,
2013-03-23 14:30:00,39.5,23.3,29.46,West,277,9.2,9.2,52,0.00,SCT,,0.00,388.0,WeatherDisplay:10.37,2013-03-23 18:30:00,
2013-03-23 14:35:00,39.6,23.4,29.46,WNW,285,5.0,10.0,52,0.00,SCT,,0.00,366.0,WeatherDisplay:10.37,2013-03-23 18:35:00,
2013-03-23 14:40:00,39.7,23.5,29.47,WNW,294,7.0,17.0,52,0.00,SCT,,0.00,355.0,WeatherDisplay:10.37,2013-03-23 18:40:00,
2013-03-23 14:45:00,39.4,22.8,29.47,WNW,295,13.8,13.8,51,0.00,BKN,,0.00,299.0,WeatherDisplay:10.37,2013-03-23 18:45:00,
2013-03-23 14:50:00,38.9,22.8,29.47,West,264,11.5,11.5,52,0.00,SCT,,0.00,327.0,WeatherDisplay:10.37,2013-03-23 18:50:00,
2013-03-23 14:55:00,39.0,22.8,29.47,WSW,252,18.4,18.4,52,0.00,BKN,,0.00,269.0,WeatherDisplay:10.37,2013-03-23 18:55:00,
2013-03-23 15:00:00,38.6,22.5,29.47,NW,315,17.3,17.3,52,0.00,BKN,,0.00,309.0,WeatherDisplay:10.37,2013-03-23 19:00:00,
2013-03-23 15:05:00,38.1,22.0,29.47,WNW,296,11.5,11.5,52,0.00,BKN,,0.00,213.0,WeatherDisplay:10.37,2013-03-23 19:05:00,
2013-03-23 15:10:00,38.4,23.6,29.47,WNW,283,4.6,4.6,55,0.00,BKN,,0.00,244.0,WeatherDisplay:10.37,2013-03-23 19:10:00,
2013-03-23 15:15:00,38.4,22.3,29.47,WNW,282,11.5,11.5,52,0.00,BKN,,0.00,207.0,WeatherDisplay:10.37,2013-03-23 19:15:00,
2013-03-23 15:20:00,38.4,22.3,29.47,NW,313,11.5,11.5,52,0.00,BKN,,0.00,192.0,WeatherDisplay:10.37,2013-03-23 19:20:00,
2013-03-23 15:25:00,38.2,22.6,29.48,WNW,288,10.0,10.0,53,0.00,BKN,,0.00,221.0,WeatherDisplay:10.37,2013-03-23 19:25:00,
2013-03-23 15:30:00,38.1,22.5,29.48,NW,317,14.0,14.0,53,0.00,BKN,,0.00,244.0,WeatherDisplay:10.37,2013-03-23 19:30:00,
2013-03-23 15:35:00,38.0,22.8,29.48,WNW,284,11.5,11.5,54,0.00,BKN,,0.00,236.0,WeatherDisplay:10.37,2013-03-23 19:35:00,
2013-03-23 15:40:00,38.0,22.8,29.49,WNW,292,9.2,9.2,54,0.00,BKN,,0.00,214.0,WeatherDisplay:10.37,2013-03-23 19:40:00,
2013-03-23 15:45:00,37.7,23.4,29.49,NNW,339,13.8,13.8,56,0.00,BKN,,0.00,163.0,WeatherDisplay:10.37,2013-03-23 19:45:00,
2013-03-23 15:50:00,37.4,23.1,29.49,NW,321,12.0,12.0,56,0.00,BKN,,0.00,197.0,WeatherDisplay:10.37,2013-03-23 19:50:00,
2013-03-23 15:55:00,37.3,23.9,29.50,West,273,13.8,13.8,58,0.00,BKN,,0.00,204.0,WeatherDisplay:10.37,2013-03-23 19:55:00,
2013-03-23 16:00:00,37.3,23.9,29.50,West,277,17.3,17.3,58,0.00,BKN,,0.00,155.0,WeatherDisplay:10.37,2013-03-23 20:00:00,
2013-03-23 16:05:00,37.1,24.1,29.50,WNW,283,12.7,12.7,59,0.00,BKN,,0.00,195.0,WeatherDisplay:10.37,2013-03-23 20:05:00,
2013-03-23 16:10:00,36.9,23.9,29.51,WNW,293,11.5,11.5,59,0.00,BKN,,0.00,176.0,WeatherDisplay:10.37,2013-03-23 20:10:00,
2013-03-23 16:15:00,37.0,24.0,29.51,WNW,284,11.5,11.5,59,0.00,BKN,,0.00,183.0,WeatherDisplay:10.37,2013-03-23 20:15:00,
2013-03-23 16:20:00,37.0,24.0,29.51,WNW,294,18.4,18.4,59,0.00,BKN,,0.00,174.0,WeatherDisplay:10.37,2013-03-23 20:20:00,
2013-03-23 16:25:00,36.9,23.9,29.51,West,276,6.0,6.0,59,0.00,BKN,,0.00,179.0,WeatherDisplay:10.37,2013-03-23 20:25:00,
2013-03-23 16:30:00,36.9,24.3,29.51,West,280,9.2,9.2,60,0.00,BKN,,0.00,144.0,WeatherDisplay:10.37,2013-03-23 20:30:00,
2013-03-23 16:35:00,36.8,24.2,29.51,WSW,248,19.6,19.6,60,0.00,BKN,,0.00,139.0,WeatherDisplay:10.37,2013-03-23 20:35:00,
2013-03-23 16:40:00,36.6,24.4,29.52,WNW,288,11.5,11.5,61,0.00,BKN,,0.00,160.0,WeatherDisplay:10.37,2013-03-23 20:40:00,
2013-03-23 16:45:00,36.7,24.5,29.52,West,273,5.8,5.8,61,0.00,BKN,,0.00,148.0,WeatherDisplay:10.37,2013-03-23 20:45:00,
2013-03-23 16:50:00,36.8,24.6,29.52,SW,230,9.0,9.0,61,0.00,BKN,,0.00,144.0,WeatherDisplay:10.37,2013-03-23 20:50:00,
2013-03-23 16:55:00,37.0,24.8,29.52,West,273,7.0,7.0,61,0.00,BKN,,0.00,146.0,WeatherDisplay:10.37,2013-03-23 20:55:00,
2013-03-23 17:00:00,37.1,24.9,29.52,West,279,4.6,4.6,61,0.00,BKN,,0.00,137.0,WeatherDisplay:10.37,2013-03-23 21:00:00,
2013-03-23 17:05:00,37.2,24.6,29.52,West,269,6.9,6.9,60,0.00,SCT,,0.00,144.0,WeatherDisplay:10.37,2013-03-23 21:05:00,
2013-03-23 17:10:00,37.3,24.7,29.52,SW,231,6.9,6.9,60,0.00,SCT,,0.00,151.0,WeatherDisplay:10.37,2013-03-23 21:10:00,
2013-03-23 17:15:00,37.3,24.7,29.52,West,281,4.0,4.0,60,0.00,SCT,,0.00,139.0,WeatherDisplay:10.37,2013-03-23 21:15:00,
2013-03-23 17:20:00,37.3,24.7,29.52,SW,226,9.2,9.2,60,0.00,SCT,,0.00,139.0,WeatherDisplay:10.37,2013-03-23 21:20:00,
2013-03-23 17:25:00,37.2,24.6,29.52,WNW,294,6.0,6.0,60,0.00,SCT,,0.00,146.0,WeatherDisplay:10.37,2013-03-23 21:25:00,
2013-03-23 17:30:00,37.1,24.5,29.52,WNW,286,11.5,11.5,60,0.00,FEW,,0.00,185.0,WeatherDisplay:10.37,2013-03-23 21:30:00,
2013-03-23 17:35:00,37.3,24.7,29.52,WNW,284,6.9,6.9,60,0.00,SCT,,0.00,139.0,WeatherDisplay:10.37,2013-03-23 21:35:00,
2013-03-23 17:40:00,37.4,24.8,29.52,NW,319,4.6,4.6,60,0.00,FEW,,0.00,130.0,WeatherDisplay:10.37,2013-03-23 21:40:00,
2013-03-23 17:45:00,37.3,24.7,29.52,WNW,288,11.5,11.5,60,0.00,SCT,,0.00,100.0,WeatherDisplay:10.37,2013-03-23 21:45:00,
2013-03-23 17:50:00,37.1,24.1,29.52,West,269,9.2,9.2,59,0.00,SCT,,0.00,91.0,WeatherDisplay:10.37,2013-03-23 21:50:00,
2013-03-23 17:55:00,36.9,24.3,29.53,West,276,11.5,11.5,60,0.00,SCT,,0.00,77.0,WeatherDisplay:10.37,2013-03-23 21:55:00,
2013-03-23 18:00:00,36.7,24.5,29.53,NW,319,3.5,3.5,61,0.00,SCT,,0.00,91.0,WeatherDisplay:10.37,2013-03-23 22:00:00,
2013-03-23 18:05:00,36.7,24.5,29.53,NNE,15,3.0,3.0,61,0.00,FEW,,0.00,95.0,WeatherDisplay:10.37,2013-03-23 22:05:00,
2013-03-23 18:10:00,36.8,24.2,29.53,WNW,287,1.2,1.2,60,0.00,SCT,,0.00,76.0,WeatherDisplay:10.37,2013-03-23 22:10:00,
2013-03-23 18:15:00,36.7,24.1,29.53,West,277,4.6,4.6,60,0.00,SCT,,0.00,56.0,WeatherDisplay:10.37,2013-03-23 22:15:00,
2013-03-23 18:20:00,36.7,24.1,29.53,WNW,292,3.5,3.5,60,0.00,SCT,,0.00,44.0,WeatherDisplay:10.37,2013-03-23 22:20:00,
2013-03-23 18:25:00,36.7,24.5,29.53,WNW,292,3.5,3.5,61,0.00,SCT,,0.00,42.0,WeatherDisplay:10.37,2013-03-23 22:25:00,
2013-03-23 18:30:00,36.6,24.0,29.53,West,267,5.8,5.8,60,0.00,SCT,,0.00,30.0,WeatherDisplay:10.37,2013-03-23 22:30:00,
2013-03-23 18:35:00,36.4,23.8,29.53,WNW,302,3.5,3.5,60,0.00,BKN,,0.00,21.0,WeatherDisplay:10.37,2013-03-23 22:35:00,
2013-03-23 18:40:00,36.3,24.1,29.54,WNW,290,2.3,2.3,61,0.00,BKN,,0.00,16.0,WeatherDisplay:10.37,2013-03-23 22:40:00,
2013-03-23 18:45:00,36.1,24.3,29.54,West,265,3.5,3.5,62,0.00,BKN,,0.00,11.0,WeatherDisplay:10.37,2013-03-23 22:45:00,
2013-03-23 18:50:00,36.0,24.2,29.54,West,265,2.3,2.3,62,0.00,SCT,,0.00,7.0,WeatherDisplay:10.37,2013-03-23 22:50:00,
2013-03-23 18:55:00,35.9,24.1,29.55,NW,325,4.6,4.6,62,0.00,SCT,,0.00,5.0,WeatherDisplay:10.37,2013-03-23 22:55:00,
2013-03-23 19:00:00,35.9,24.1,29.55,WSW,246,9.2,9.2,62,0.00,CLR,,0.00,0.0,WeatherDisplay:10.37,2013-03-23 23:00:00,
2013-03-23 19:05:00,35.8,24.0,29.55,WNW,286,11.5,11.5,62,0.00,CLR,,0.00,0.0,WeatherDisplay:10.37,2013-03-23 23:05:00,
2013-03-23 19:10:00,35.8,24.0,29.55,WNW,296,3.5,3.5,62,0.00,CLR,,0.00,0.0,WeatherDisplay:10.37,2013-03-23 23:10:00,
2013-03-23 19:15:00,35.8,24.4,29.55,West,271,3.5,3.5,63,0.00,CLR,,0.00,0.0,WeatherDisplay:10.37,2013-03-23 23:15:00,
2013-03-23 19:21:00,35.8,24.0,29.55,WNW,286,3.5,3.5,62,0.00,CLR,,0.00,0.0,WeatherDisplay:10.37,2013-03-23 23:21:00,
2013-03-23 19:26:00,35.9,23.7,29.56,West,270,6.9,6.9,61,0.00,CLR,,0.00,0.0,WeatherDisplay:10.37,2013-03-23 23:26:00,
2013-03-23 19:31:00,35.9,24.1,29.56,NW,304,1.2,1.2,62,0.00,CLR,,0.00,0.0,WeatherDisplay:10.37,2013-03-23 23:31:00,
2013-03-23 19:36:00,35.8,24.0,29.56,WNW,288,3.5,3.5,62,0.00,CLR,,0.00,0.0,WeatherDisplay:10.37,2013-03-23 23:36:00,
2013-03-23 19:41:00,35.4,24.0,29.56,WNW,292,10.4,10.4,63,0.00,CLR,,0.00,0.0,WeatherDisplay:10.37,2013-03-23 23:41:00,
2013-03-23 19:46:00,35.5,24.1,29.56,WNW,294,2.3,2.3,63,0.00,CLR,,0.00,0.0,WeatherDisplay:10.37,2013-03-23 23:46:00,
2013-03-23 19:51:00,35.4,23.7,29.56,WNW,294,4.6,4.6,62,0.00,CLR,,0.00,0.0,WeatherDisplay:10.37,2013-03-23 23:51:00,
2013-03-23 19:56:00,35.3,24.0,29.56,WNW,294,0.0,0.0,63,0.00,CLR,,0.00,0.0,WeatherDisplay:10.37,2013-03-23 23:56:00,
2013-03-23 20:01:00,35.4,23.7,29.56,WNW,290,4.6,4.6,62,0.00,CLR,,0.00,0.0,WeatherDisplay:10.37,2013-03-24 00:01:00,
2013-03-23 20:06:00,35.2,23.9,29.56,WNW,290,0.0,0.0,63,0.00,CLR,,0.00,0.0,WeatherDisplay:10.37,2013-03-24 00:06:00,
2013-03-23 20:11:00,35.1,23.8,29.57,WNW,290,0.0,0.0,63,0.00,CLR,,0.00,0.0,WeatherDisplay:10.37,2013-03-24 00:11:00,
2013-03-23 20:16:00,34.8,23.9,29.57,WNW,290,0.0,0.0,64,0.00,CLR,,0.00,0.0,WeatherDisplay:10.37,2013-03-24 00:16:00,
2013-03-23 20:21:00,34.6,23.7,29.57,WNW,290,3.5,3.5,64,0.00,CLR,,0.00,0.0,WeatherDisplay:10.37,2013-03-24 00:21:00,
2013-03-23 20:26:00,34.6,23.7,29.58,WNW,290,2.3,2.3,64,0.00,CLR,,0.00,0.0,WeatherDisplay:10.37,2013-03-24 00:26:00,
2013-03-23 20:31:00,34.9,23.9,29.58,WNW,290,2.3,2.3,64,0.00,CLR,,0.00,0.0,WeatherDisplay:10.37,2013-03-24 00:31:00,
2013-03-23 20:36:00,34.8,24.2,29.58,WNW,290,2.3,2.3,65,0.00,CLR,,0.00,0.0,WeatherDisplay:10.37,2013-03-24 00:36:00,
2013-03-23 20:41:00,34.6,24.4,29.59,WNW,290,0.0,0.0,66,0.00,CLR,,0.00,0.0,WeatherDisplay:10.37,2013-03-24 00:41:00,
2013-03-23 20:46:00,34.5,24.7,29.59,WNW,290,1.0,1.0,67,0.00,CLR,,0.00,0.0,WeatherDisplay:10.37,2013-03-24 00:46:00,
2013-03-23 20:52:00,34.5,24.7,29.59,WNW,290,3.0,3.0,67,0.00,CLR,,0.00,0.0,WeatherDisplay:10.37,2013-03-24 00:52:00,
2013-03-23 20:57:00,34.6,24.4,29.59,WNW,290,0.0,0.0,66,0.00,CLR,,0.00,0.0,WeatherDisplay:10.37,2013-03-24 00:57:00,
2013-03-23 21:02:00,34.4,24.9,29.59,WNW,290,1.0,1.0,68,0.00,CLR,,0.00,0.0,WeatherDisplay:10.37,2013-03-24 01:02:00,
2013-03-23 21:07:00,34.4,24.9,29.60,WNW,290,3.5,3.5,68,0.00,CLR,,0.00,0.0,WeatherDisplay:10.37,2013-03-24 01:07:00,
2013-03-23 21:12:00,34.4,25.3,29.60,WNW,290,2.3,2.3,69,0.00,CLR,,0.00,0.0,WeatherDisplay:10.37,2013-03-24 01:12:00,
2013-03-23 21:17:00,34.4,25.3,29.60,West,271,6.9,6.9,69,0.00,CLR,,0.00,0.0,WeatherDisplay:10.37,2013-03-24 01:17:00,
2013-03-23 21:22:00,34.4,24.9,29.61,WNW,290,2.3,2.3,68,0.00,CLR,,0.00,0.0,WeatherDisplay:10.37,2013-03-24 01:22:00,
2013-03-23 21:27:00,34.8,24.6,29.61,WNW,288,2.3,2.3,66,0.00,CLR,,0.00,0.0,WeatherDisplay:10.37,2013-03-24 01:27:00,
2013-03-23 21:32:00,35.2,24.2,29.61,WNW,292,6.9,6.9,64,0.00,CLR,,0.00,0.0,WeatherDisplay:10.37,2013-03-24 01:32:00,
2013-03-23 21:37:00,35.4,24.4,29.61,WNW,290,8.0,8.0,64,0.00,CLR,,0.00,0.0,WeatherDisplay:10.37,2013-03-24 01:37:00,
2013-03-23 21:42:00,35.6,24.6,29.61,WNW,296,10.4,10.4,64,0.00,CLR,,0.00,0.0,WeatherDisplay:10.37,2013-03-24 01:42:00,
2013-03-23 21:47:00,35.6,24.6,29.61,WNW,287,12.0,12.0,64,0.00,CLR,,0.00,0.0,WeatherDisplay:10.37,2013-03-24 01:47:00,
2013-03-23 21:52:00,35.9,24.5,29.59,West,280,15.0,15.0,63,0.00,CLR,,0.00,0.0,WeatherDisplay:10.37,2013-03-24 01:52:00,
2013-03-23 21:57:00,36.1,24.7,29.59,West,272,13.0,13.0,63,0.00,CLR,,0.00,0.0,WeatherDisplay:10.37,2013-03-24 01:57:00,
2013-03-23 22:02:00,36.1,24.7,29.59,West,273,17.3,17.3,63,0.00,CLR,,0.00,0.0,WeatherDisplay:10.37,2013-03-24 02:02:00,
2013-03-23 22:07:00,36.0,24.6,29.59,WNW,296,13.8,13.8,63,0.00,CLR,,0.00,0.0,WeatherDisplay:10.37,2013-03-24 02:07:00,
2013-03-23 22:12:00,35.9,24.5,29.59,West,280,12.7,12.7,63,0.00,CLR,,0.00,0.0,WeatherDisplay:10.37,2013-03-24 02:12:00,
2013-03-23 22:17:00,35.7,24.3,29.59,WNW,295,16.1,16.1,63,0.00,CLR,,0.00,0.0,WeatherDisplay:10.37,2013-03-24 02:17:00,
2013-03-23 22:22:00,35.6,24.2,29.58,WNW,288,12.0,12.0,63,0.00,CLR,,0.00,0.0,WeatherDisplay:10.37,2013-03-24 02:22:00,
2013-03-23 22:27:00,35.4,24.0,29.58,WNW,295,18.0,18.0,63,0.00,CLR,,0.00,0.0,WeatherDisplay:10.37,2013-03-24 02:27:00,
2013-03-23 22:32:00,35.4,24.0,29.58,WNW,287,14.0,14.0,63,0.00,CLR,,0.00,0.0,WeatherDisplay:10.37,2013-03-24 02:32:00,
2013-03-23 22:37:00,35.4,24.0,29.58,West,281,11.5,11.5,63,0.00,CLR,,0.00,0.0,WeatherDisplay:10.37,2013-03-24 02:37:00,
2013-03-23 22:42:00,35.3,24.0,29.58,West,272,8.0,8.0,63,0.00,CLR,,0.00,0.0,WeatherDisplay:10.37,2013-03-24 02:42:00,
2013-03-23 22:47:00,35.1,24.1,29.58,West,280,12.0,12.0,64,0.00,CLR,,0.00,0.0,WeatherDisplay:10.37,2013-03-24 02:47:00,
2013-03-23 22:52:00,35.1,24.1,29.59,WNW,289,15.0,15.0,64,0.00,CLR,,0.00,0.0,WeatherDisplay:10.37,2013-03-24 02:52:00,
2013-03-23 22:57:00,35.2,24.2,29.59,SSW,209,17.3,17.3,64,0.00,CLR,,0.00,0.0,WeatherDisplay:10.37,2013-03-24 02:57:00,
2013-03-23 23:02:00,35.4,24.0,29.59,WNW,290,15.0,15.0,63,0.00,CLR,,0.00,0.0,WeatherDisplay:10.37,2013-03-24 03:02:00,
2013-03-23 23:07:00,35.5,24.5,29.58,WSW,238,11.5,11.5,64,0.00,CLR,,0.00,0.0,WeatherDisplay:10.37,2013-03-24 03:07:00,
2013-03-23 23:12:00,35.5,24.5,29.58,WNW,287,17.3,17.3,64,0.00,CLR,,0.00,0.0,WeatherDisplay:10.37,2013-03-24 03:12:00,
2013-03-23 23:17:00,35.4,24.4,29.58,West,280,15.0,15.0,64,0.00,CLR,,0.00,0.0,WeatherDisplay:10.37,2013-03-24 03:17:00,
2013-03-23 23:22:00,35.3,24.7,29.58,WSW,245,13.8,13.8,65,0.00,CLR,,0.00,0.0,WeatherDisplay:10.37,2013-03-24 03:22:00,
2013-03-23 23:27:00,35.2,24.6,29.58,WNW,290,15.0,15.0,65,0.00,CLR,,0.00,0.0,WeatherDisplay:10.37,2013-03-24 03:27:00,
2013-03-23 23:32:00,35.2,24.6,29.58,WNW,299,13.8,13.8,65,0.00,CLR,,0.00,0.0,WeatherDisplay:10.37,2013-03-24 03:32:00,
2013-03-23 23:37:00,35.2,24.6,29.58,WNW,288,18.4,18.4,65,0.00,CLR,,0.00,0.0,WeatherDisplay:10.37,2013-03-24 03:37:00,
2013-03-23 23:43:00,35.3,24.3,29.58,West,278,18.4,18.4,64,0.00,CLR,,0.00,0.0,WeatherDisplay:10.37,2013-03-24 03:43:00,
2013-03-23 23:48:00,35.3,24.3,29.58,West,271,16.1,16.1,64,0.00,CLR,,0.00,0.0,WeatherDisplay:10.37,2013-03-24 03:48:00,
2013-03-23 23:53:00,35.2,24.2,29.58,WNW,286,18.4,18.4,64,0.00,CLR,,0.00,0.0,WeatherDisplay:10.37,2013-03-24 03:53:00,
2013-03-23 23:58:00,35.2,24.2,29.58,NW,315,13.8,13.8,64,0.00,CLR,,0.00,0.0,WeatherDisplay:10.37,2013-03-24 03:58:00,